createdAt,value
2022-10-03T00:00:35.682Z,99.90
2022-10-03T00:03:48.240Z,99.90
2022-10-03T00:07:16.619Z,99.90
2022-10-03T00:10:33.042Z,99.90
2022-10-03T00:13:24.108Z,99.90
2022-10-03T00:16:10.581Z,99.90
2022-10-03T00:19:04.757Z,99.90
2022-10-03T00:22:12.438Z,99.90
2022-10-03T00:25:20.784Z,99.90
2022-10-03T00:28:02.985Z,99.90
2022-10-03T00:30:46.535Z,99.90
2022-10-03T00:33:46.369Z,99.90
2022-10-03T00:36:41.233Z,99.90
2022-10-03T00:39:57.212Z,99.90
2022-10-03T00:43:11.741Z,99.90
2022-10-03T00:46:18.523Z,99.90
2022-10-03T00:49:10.526Z,99.90
2022-10-03T00:51:56.664Z,99.90
2022-10-03T00:55:05.451Z,99.90
2022-10-03T00:57:57.227Z,99.90
2022-10-03T01:00:34.244Z,99.90
2022-10-03T01:03:54.099Z,99.90
2022-10-03T01:06:39.341Z,99.90
2022-10-03T01:09:37.300Z,99.90
2022-10-03T01:12:40.910Z,99.90
2022-10-03T01:15:43.454Z,99.90
2022-10-03T01:18:28.186Z,99.90
2022-10-03T01:21:04.700Z,99.90
2022-10-03T01:23:57.196Z,99.90
2022-10-03T01:26:54.966Z,99.90
2022-10-03T01:30:00.047Z,99.90
2022-10-03T01:32:53.057Z,99.90
2022-10-03T01:35:40.385Z,99.90
2022-10-03T01:38:51.400Z,99.90
2022-10-03T01:41:53.189Z,99.90
2022-10-03T01:44:43.463Z,99.90
2022-10-03T01:47:24.768Z,99.90
2022-10-03T01:50:05.039Z,99.90
2022-10-03T01:52:54.917Z,99.90
2022-10-03T01:55:56.729Z,99.90
2022-10-03T01:58:36.793Z,99.90
2022-10-03T02:01:46.492Z,99.90
2022-10-03T02:04:31.518Z,99.90
2022-10-03T02:07:41.217Z,99.90
2022-10-03T02:10:20.531Z,99.90
2022-10-03T02:13:18.518Z,99.90
2022-10-03T02:16:43.484Z,99.90
2022-10-03T02:19:49.089Z,99.90
2022-10-03T02:22:50.624Z,99.90
2022-10-03T02:25:26.139Z,99.90
2022-10-03T02:28:14.501Z,99.90
2022-10-03T02:31:35.894Z,99.90
2022-10-03T02:34:40.663Z,99.90
2022-10-03T02:37:40.210Z,99.90
2022-10-03T02:41:04.379Z,99.90
2022-10-03T02:43:55.592Z,99.90
2022-10-03T02:47:00.071Z,99.90
2022-10-03T02:49:36.104Z,99.90
2022-10-03T02:52:25.887Z,99.90
2022-10-03T02:54:59.616Z,99.90
2022-10-03T02:58:14.125Z,99.90
2022-10-03T03:01:26.360Z,99.90
2022-10-03T03:04:25.336Z,99.90
2022-10-03T03:07:29.297Z,99.90
2022-10-03T03:10:45.378Z,99.90
2022-10-03T03:14:08.260Z,99.90
2022-10-03T03:16:49.942Z,99.90
2022-10-03T03:20:06.832Z,99.90
2022-10-03T03:23:05.359Z,99.90
2022-10-03T03:25:51.726Z,99.90
2022-10-03T03:28:52.482Z,99.90
2022-10-03T03:31:51.970Z,99.90
2022-10-03T03:34:44.255Z,99.90
2022-10-03T03:37:26.120Z,99.90
2022-10-03T03:40:32.537Z,99.90
2022-10-03T03:43:11.417Z,99.90
2022-10-03T03:45:54.555Z,99.90
2022-10-03T03:48:46.585Z,99.90
2022-10-03T03:52:14.224Z,99.90
2022-10-03T03:55:24.274Z,99.90
2022-10-03T03:58:00.790Z,99.90
2022-10-03T04:00:56.805Z,99.90
2022-10-03T04:04:07.237Z,99.90
2022-10-03T04:06:58.509Z,99.90
2022-10-03T04:09:56.792Z,99.90
2022-10-03T04:12:36.449Z,99.90
2022-10-03T04:15:50.863Z,99.90
2022-10-03T04:19:17.022Z,99.90
2022-10-03T04:22:01.721Z,99.90
2022-10-03T04:24:37.719Z,99.90
2022-10-03T04:27:25.508Z,99.90
2022-10-03T04:30:17.715Z,99.90
2022-10-03T04:33:15.179Z,99.90
2022-10-03T04:36:05.403Z,99.90
2022-10-03T04:38:58.775Z,99.90
2022-10-03T04:42:08.016Z,99.90
2022-10-03T04:45:36.003Z,99.90
2022-10-03T04:48:19.051Z,99.90
2022-10-03T04:51:16.100Z,99.90
2022-10-03T04:53:57.724Z,99.90
2022-10-03T04:56:59.048Z,99.90
2022-10-03T04:59:42.707Z,99.90
2022-10-03T05:02:19.101Z,99.90
2022-10-03T05:05:32.344Z,99.90
2022-10-03T05:08:26.886Z,99.90
2022-10-03T05:11:48.207Z,99.90
2022-10-03T05:14:33.345Z,99.90
2022-10-03T05:17:24.900Z,99.90
2022-10-03T05:20:09.863Z,99.90
2022-10-03T05:23:19.658Z,99.90
2022-10-03T05:26:32.692Z,99.90
2022-10-03T05:29:36.950Z,99.90
2022-10-03T05:32:45.153Z,99.90
2022-10-03T05:35:42.815Z,99.90
2022-10-03T05:38:15.704Z,99.90
2022-10-03T05:41:09.507Z,99.90
2022-10-03T05:44:01.439Z,99.90
2022-10-03T05:46:59.268Z,99.90
2022-10-03T05:50:10.539Z,99.90
2022-10-03T05:53:21.687Z,99.90
2022-10-03T05:56:42.656Z,99.90
2022-10-03T05:59:31.501Z,99.90
2022-10-03T06:02:45.330Z,99.90
2022-10-03T06:05:58.138Z,99.90
2022-10-03T06:08:42.142Z,99.90
2022-10-03T06:11:50.355Z,99.90
2022-10-03T06:14:55.289Z,99.90
2022-10-03T06:17:53.751Z,99.90
2022-10-03T06:20:51.507Z,99.90
2022-10-03T06:23:52.181Z,99.90
2022-10-03T06:27:12.926Z,99.90
2022-10-03T06:30:12.011Z,99.90
2022-10-03T06:33:13.921Z,99.90
2022-10-03T06:36:03.013Z,99.90
2022-10-03T06:39:18.137Z,99.90
2022-10-03T06:42:34.835Z,99.90
2022-10-03T06:45:54.311Z,99.90
2022-10-03T06:48:39.901Z,99.90
2022-10-03T06:52:03.344Z,99.90
2022-10-03T06:55:17.426Z,99.90
2022-10-03T06:58:15.341Z,99.90
2022-10-03T07:01:12.534Z,99.90
2022-10-03T07:04:11.994Z,99.90
2022-10-03T07:07:05.854Z,99.90
2022-10-03T07:10:01.062Z,99.90
2022-10-03T07:12:54.061Z,99.90
2022-10-03T07:16:26.639Z,99.90
2022-10-03T07:19:48.438Z,99.90
2022-10-03T07:23:20.666Z,99.90
2022-10-03T07:26:43.034Z,99.90
2022-10-03T07:29:19.648Z,99.90
2022-10-03T07:32:20.500Z,99.90
2022-10-03T07:35:59.332Z,99.90
2022-10-03T07:39:26.644Z,99.90
2022-10-03T07:42:22.361Z,99.90
2022-10-03T07:45:06.432Z,99.90
2022-10-03T07:47:57.785Z,99.90
2022-10-03T07:50:53.400Z,99.90
2022-10-03T07:54:02.559Z,99.90
2022-10-03T07:56:56.577Z,99.90
2022-10-03T08:00:31.285Z,99.90
2022-10-03T08:03:27.487Z,99.90
2022-10-03T08:06:47.695Z,99.90
2022-10-03T08:09:45.364Z,99.90
2022-10-03T08:13:04.033Z,99.90
2022-10-03T08:16:07.380Z,99.90
2022-10-03T08:19:48.999Z,99.90
2022-10-03T08:22:55.639Z,99.90
2022-10-03T08:26:20.685Z,99.90
2022-10-03T08:28:59.457Z,99.90
2022-10-03T08:31:44.478Z,99.90
2022-10-03T08:34:50.244Z,99.90
2022-10-03T08:37:38.772Z,99.90
2022-10-03T08:40:27.399Z,99.90
2022-10-03T08:43:28.325Z,99.90
2022-10-03T08:46:47.615Z,99.90
2022-10-03T08:49:44.972Z,99.90
2022-10-03T08:52:50.669Z,99.90
2022-10-03T08:55:38.608Z,99.90
2022-10-03T08:58:39.196Z,99.90
2022-10-03T09:01:59.023Z,99.90
2022-10-03T09:05:00.583Z,99.90
2022-10-03T09:08:06.909Z,99.90
2022-10-03T09:11:21.716Z,99.80
2022-10-03T09:14:10.935Z,98.80
2022-10-03T09:17:17.328Z,99.10
2022-10-03T09:20:31.372Z,98.30
2022-10-03T09:23:39.443Z,98.50
2022-10-03T09:26:25.336Z,99.10
2022-10-03T09:29:30.062Z,99.50
2022-10-03T09:32:49.770Z,99.40
2022-10-03T09:35:37.907Z,99.90
2022-10-03T09:38:35.531Z,99.90
2022-10-03T09:41:43.441Z,99.30
2022-10-03T09:44:42.765Z,98.40
2022-10-03T09:47:49.385Z,99.30
2022-10-03T09:50:53.135Z,99.80
2022-10-03T09:53:54.203Z,99.80
2022-10-03T09:56:36.386Z,99.40
2022-10-03T09:59:35.311Z,99.80
2022-10-03T10:02:05.410Z,99.50
2022-10-03T10:04:56.789Z,99.90
2022-10-03T10:08:00.945Z,99.90
2022-10-03T10:11:14.620Z,99.80
2022-10-03T10:14:20.710Z,98.80
2022-10-03T10:17:30.391Z,99.90
2022-10-03T10:20:19.379Z,99.00
2022-10-03T10:22:55.264Z,99.90
2022-10-03T10:25:46.546Z,99.80
2022-10-03T10:29:13.276Z,98.10
2022-10-03T10:31:49.147Z,96.80
2022-10-03T10:34:47.937Z,96.10
2022-10-03T10:37:55.625Z,98.20
2022-10-03T10:40:59.909Z,96.60
2022-10-03T10:44:12.740Z,95.10
2022-10-03T10:47:01.330Z,94.80
2022-10-03T10:49:43.263Z,94.70
2022-10-03T10:52:19.878Z,94.90
2022-10-03T10:55:10.920Z,95.00
2022-10-03T10:58:32.725Z,93.60
2022-10-03T11:02:10.009Z,95.00
2022-10-03T11:05:07.561Z,98.70
2022-10-03T11:08:11.405Z,99.20
2022-10-03T11:11:03.840Z,97.90
2022-10-03T11:14:04.066Z,98.90
2022-10-03T11:17:01.956Z,97.40
2022-10-03T11:20:18.750Z,97.40
2022-10-03T11:23:10.205Z,96.20
2022-10-03T11:26:24.979Z,94.60
2022-10-03T11:29:32.516Z,94.80
2022-10-03T11:32:43.493Z,94.90
2022-10-03T11:35:59.759Z,93.20
2022-10-03T11:38:46.327Z,92.60
2022-10-03T11:41:38.248Z,91.90
2022-10-03T11:44:13.929Z,92.10
2022-10-03T11:47:05.303Z,91.70
2022-10-03T11:50:09.688Z,91.40
2022-10-03T11:53:04.120Z,90.70
2022-10-03T11:55:41.629Z,89.40
2022-10-03T11:59:09.528Z,91.00
2022-10-03T12:01:44.115Z,86.60
2022-10-03T12:04:43.551Z,91.30
2022-10-03T12:08:01.596Z,91.00
2022-10-03T12:10:52.533Z,91.70
2022-10-03T12:13:38.162Z,90.80
2022-10-03T12:16:48.832Z,91.40
2022-10-03T12:20:15.786Z,91.40
2022-10-03T12:22:53.305Z,91.10
2022-10-03T12:25:27.663Z,90.70
2022-10-03T12:28:20.991Z,90.70
2022-10-03T12:31:30.040Z,89.40
2022-10-03T12:34:22.018Z,91.50
2022-10-03T12:37:23.941Z,91.40
2022-10-03T12:40:27.676Z,90.00
2022-10-03T12:43:21.602Z,88.40
2022-10-03T12:46:01.884Z,87.90
2022-10-03T12:49:26.226Z,88.90
2022-10-03T12:52:08.913Z,85.90
2022-10-03T12:55:22.505Z,87.50
2022-10-03T12:57:52.950Z,84.90
2022-10-03T13:00:57.008Z,86.20
2022-10-03T13:03:41.403Z,82.40
2022-10-03T13:07:02.957Z,81.90
2022-10-03T13:09:59.217Z,83.10
2022-10-03T13:13:00.955Z,81.90
2022-10-03T13:16:09.273Z,79.10
2022-10-03T13:18:54.339Z,78.90
2022-10-03T13:21:45.575Z,81.60
2022-10-03T13:24:46.124Z,79.60
2022-10-03T13:27:46.740Z,78.80
2022-10-03T13:30:29.219Z,80.00
2022-10-03T13:33:28.968Z,78.30
2022-10-03T13:36:26.339Z,78.40
2022-10-03T13:39:16.372Z,77.20
2022-10-03T13:42:08.322Z,78.30
2022-10-03T13:45:00.002Z,78.20
2022-10-03T13:47:44.007Z,79.00
2022-10-03T13:50:33.242Z,79.60
2022-10-03T13:53:24.725Z,79.60
2022-10-03T13:56:01.675Z,78.30
2022-10-03T13:58:38.343Z,80.20
2022-10-03T14:01:41.764Z,79.40
2022-10-03T14:04:24.613Z,80.30
2022-10-03T14:07:04.344Z,81.90
2022-10-03T14:10:00.436Z,82.90
2022-10-03T14:12:55.039Z,80.80
2022-10-03T14:15:51.915Z,82.40
2022-10-03T14:18:55.889Z,81.70
2022-10-03T14:21:41.823Z,83.00
2022-10-03T14:24:24.771Z,83.60
2022-10-03T14:27:04.746Z,85.00
2022-10-03T14:30:03.651Z,86.10
2022-10-03T14:32:48.321Z,87.00
2022-10-03T14:36:02.579Z,86.20
2022-10-03T14:39:09.888Z,85.70
2022-10-03T14:42:11.443Z,87.10
2022-10-03T14:44:47.985Z,86.80
2022-10-03T14:47:18.848Z,87.20
2022-10-03T14:49:59.448Z,88.40
2022-10-03T14:52:45.047Z,88.60
2022-10-03T14:55:29.902Z,90.00
2022-10-03T14:58:32.510Z,89.20
2022-10-03T15:01:13.138Z,90.20
2022-10-03T15:03:53.358Z,90.30
2022-10-03T15:06:35.079Z,90.30
2022-10-03T15:09:20.321Z,89.20
2022-10-03T15:12:24.615Z,89.10
2022-10-03T15:15:00.307Z,88.70
2022-10-03T15:17:30.526Z,89.00
2022-10-03T15:20:04.932Z,87.60
2022-10-03T15:22:37.840Z,89.70
2022-10-03T15:25:37.332Z,89.00
2022-10-03T15:28:19.647Z,89.10
2022-10-03T15:30:49.301Z,89.80
2022-10-03T15:33:37.899Z,89.10
2022-10-03T15:36:05.512Z,90.50
2022-10-03T15:38:41.363Z,90.90
2022-10-03T15:41:26.973Z,90.80
2022-10-03T15:44:33.849Z,90.40
2022-10-03T15:47:12.871Z,91.30
2022-10-03T15:49:59.535Z,91.60
2022-10-03T15:52:49.368Z,91.80
2022-10-03T15:55:35.199Z,92.30
2022-10-03T15:58:19.839Z,91.80
2022-10-03T16:01:12.375Z,92.10
2022-10-03T16:04:21.852Z,92.30
2022-10-03T16:07:24.662Z,93.50
2022-10-03T16:09:57.982Z,94.00
2022-10-03T16:13:08.187Z,95.00
2022-10-03T16:15:53.782Z,95.30
2022-10-03T16:18:30.119Z,95.20
2022-10-03T16:21:03.371Z,95.60
2022-10-03T16:23:40.821Z,95.50
2022-10-03T16:26:24.822Z,96.00
2022-10-03T16:29:34.240Z,96.20
2022-10-03T16:32:10.578Z,95.80
2022-10-03T16:34:44.223Z,96.10
2022-10-03T16:37:27.283Z,96.10
2022-10-03T16:40:06.098Z,97.00
2022-10-03T16:42:44.448Z,97.30
2022-10-03T16:45:44.153Z,97.10
2022-10-03T16:48:53.195Z,97.20
2022-10-03T16:51:27.325Z,97.70
2022-10-03T16:53:56.380Z,98.30
2022-10-03T16:56:39.971Z,98.60
2022-10-03T16:59:22.957Z,98.50
2022-10-03T17:01:57.384Z,98.80
2022-10-03T17:04:41.914Z,99.00
2022-10-03T17:07:23.694Z,99.10
2022-10-03T17:09:56.902Z,99.40
2022-10-03T17:12:37.542Z,99.70
2022-10-03T17:15:20.881Z,99.90
2022-10-03T17:18:16.011Z,99.90
2022-10-03T17:20:50.567Z,99.90
2022-10-03T17:23:43.791Z,99.90
2022-10-03T17:26:33.337Z,99.90
2022-10-03T17:29:42.233Z,99.90
2022-10-03T17:32:28.591Z,99.90
2022-10-03T17:34:58.668Z,99.90
2022-10-03T17:38:47.993Z,99.90
2022-10-03T17:41:41.851Z,99.90
2022-10-03T17:44:27.184Z,99.90
2022-10-03T17:47:19.610Z,99.90
2022-10-03T17:50:00.694Z,99.90
2022-10-03T17:52:30.237Z,99.90
2022-10-03T17:55:04.595Z,99.90
2022-10-03T17:57:56.003Z,99.90
2022-10-03T18:00:53.870Z,99.90
2022-10-03T18:03:56.789Z,99.90
2022-10-03T18:06:32.045Z,99.90
2022-10-03T18:09:07.230Z,99.90
2022-10-03T18:11:40.481Z,99.90
2022-10-03T18:14:45.225Z,99.90
2022-10-03T18:18:06.394Z,99.90
2022-10-03T18:20:58.300Z,99.90
2022-10-03T18:24:18.432Z,99.90
2022-10-03T18:27:27.523Z,99.90
2022-10-03T18:30:06.995Z,99.90
2022-10-03T18:32:40.400Z,99.90
2022-10-03T18:35:20.506Z,99.90
2022-10-03T18:38:04.811Z,99.90
2022-10-03T18:40:47.615Z,99.90
2022-10-03T18:43:45.541Z,99.90
2022-10-03T18:46:43.216Z,99.90
2022-10-03T18:49:34.353Z,99.90
2022-10-03T18:52:17.199Z,99.90
2022-10-03T18:55:15.045Z,99.90
2022-10-03T18:57:54.557Z,99.90
2022-10-03T19:00:31.594Z,99.90
2022-10-03T19:03:15.791Z,99.90
2022-10-03T19:05:44.943Z,99.90
2022-10-03T19:08:50.409Z,99.90
2022-10-03T19:11:45.781Z,99.90
2022-10-03T19:14:26.135Z,99.90
2022-10-03T19:17:15.216Z,99.90
2022-10-03T19:19:48.569Z,99.90
2022-10-03T19:22:25.165Z,99.90
2022-10-03T19:24:58.831Z,99.90
2022-10-03T19:28:06.400Z,99.90
2022-10-03T19:30:35.954Z,99.90
2022-10-03T19:33:22.969Z,99.90
2022-10-03T19:35:54.396Z,99.90
2022-10-03T19:38:29.715Z,99.90
2022-10-03T19:41:37.737Z,99.90
2022-10-03T19:44:14.223Z,99.90
2022-10-03T19:46:55.971Z,99.90
2022-10-03T19:49:59.780Z,99.90
2022-10-03T19:52:35.764Z,99.90
2022-10-03T19:55:13.785Z,99.90
2022-10-03T19:57:43.952Z,99.90
2022-10-03T20:00:19.415Z,99.90
2022-10-03T20:03:13.773Z,99.90
2022-10-03T20:06:02.157Z,99.90
2022-10-03T20:08:50.782Z,99.90
2022-10-03T20:11:46.917Z,99.90
2022-10-03T20:14:28.988Z,99.90
2022-10-03T20:17:12.002Z,99.90
2022-10-03T20:20:16.805Z,99.90
2022-10-03T20:22:43.966Z,99.90
2022-10-03T20:25:45.333Z,99.90
2022-10-03T20:28:38.311Z,99.90
2022-10-03T20:31:06.444Z,99.90
2022-10-03T20:33:40.142Z,99.90
2022-10-03T20:36:18.068Z,99.90
2022-10-03T20:39:06.291Z,99.90
2022-10-03T20:41:33.412Z,99.90
2022-10-03T20:44:33.320Z,99.90
2022-10-03T20:47:10.362Z,99.90
2022-10-03T20:49:48.338Z,99.90
2022-10-03T20:52:22.058Z,99.90
2022-10-03T20:54:58.510Z,99.90
2022-10-03T20:57:36.165Z,99.90
2022-10-03T21:00:12.861Z,99.90
2022-10-03T21:03:26.921Z,99.90
2022-10-03T21:05:57.632Z,99.90
2022-10-03T21:08:37.524Z,99.90
2022-10-03T21:11:10.860Z,99.90
2022-10-03T21:13:53.677Z,99.90
2022-10-03T21:16:34.423Z,99.90
2022-10-03T21:19:47.598Z,99.90
2022-10-03T21:22:20.035Z,99.90
2022-10-03T21:25:01.385Z,99.90
2022-10-03T21:27:31.385Z,99.90
2022-10-03T21:30:22.313Z,99.90
2022-10-03T21:33:09.943Z,99.90
2022-10-03T21:35:41.930Z,99.90
2022-10-03T21:38:30.990Z,99.90
2022-10-03T21:41:31.929Z,99.90
2022-10-03T21:44:04.314Z,99.90
2022-10-03T21:47:28.180Z,99.90
2022-10-03T21:50:03.018Z,99.90
2022-10-03T21:52:59.960Z,99.90
2022-10-03T21:55:53.053Z,99.90
2022-10-03T21:58:49.920Z,99.90
2022-10-03T22:01:44.801Z,99.90
2022-10-03T22:04:29.161Z,99.90
2022-10-03T22:07:17.072Z,99.90
2022-10-03T22:09:54.072Z,99.90
2022-10-03T22:12:22.343Z,99.90
2022-10-03T22:15:02.832Z,99.90
2022-10-03T22:17:54.362Z,99.90
2022-10-03T22:20:29.330Z,99.90
2022-10-03T22:23:46.130Z,99.90
2022-10-03T22:26:31.081Z,99.90
2022-10-03T22:29:34.802Z,99.90
2022-10-03T22:32:34.282Z,99.90
2022-10-03T22:35:52.749Z,99.90
2022-10-03T22:38:35.586Z,99.90
2022-10-03T22:41:28.562Z,99.90
2022-10-03T22:43:59.500Z,99.90
2022-10-03T22:46:31.680Z,99.90
2022-10-03T22:49:20.789Z,99.90
2022-10-03T22:51:53.939Z,99.90
2022-10-03T22:54:39.372Z,99.90
2022-10-03T22:57:12.765Z,99.90
2022-10-03T22:59:49.824Z,99.90
2022-10-03T23:02:19.647Z,99.90
2022-10-03T23:05:00.800Z,99.90
2022-10-03T23:07:46.294Z,99.90
2022-10-03T23:10:52.988Z,99.90
2022-10-03T23:13:44.302Z,99.90
2022-10-03T23:16:45.168Z,99.90
2022-10-03T23:20:03.134Z,99.90
2022-10-03T23:22:32.718Z,99.90
2022-10-03T23:25:12.256Z,99.90
2022-10-03T23:28:01.052Z,99.90
2022-10-03T23:30:33.832Z,99.90
2022-10-03T23:33:03.960Z,99.90
2022-10-03T23:35:31.002Z,99.90
2022-10-03T23:37:59.816Z,99.90
2022-10-03T23:40:56.968Z,99.90
2022-10-03T23:43:49.098Z,99.90
2022-10-03T23:46:23.129Z,99.90
2022-10-03T23:49:01.556Z,99.90
2022-10-03T23:51:35.036Z,99.90
2022-10-03T23:54:07.764Z,99.90
2022-10-03T23:56:48.085Z,99.90
2022-10-03T23:59:14.986Z,99.90
